sensor_id;sensor_type;location;lat;lon;timestamp;temperature;humidity
11423;DHT22;5768;51.476;7.210;2023-07-30T00:03:17;17.80;99.90
11423;DHT22;5768;51.476;7.210;2023-07-30T00:08:20;17.80;99.50
11423;DHT22;5768;51.476;7.210;2023-07-30T00:13:23;17.60;98.40
11423;DHT22;5768;51.476;7.210;2023-07-30T00:18:26;17.60;94.70
11423;DHT22;5768;51.476;7.210;2023-07-30T00:23:28;17.60;93.20
11423;DHT22;5768;51.476;7.210;2023-07-30T00:28:31;17.40;91.20
11423;DHT22;5768;51.476;7.210;2023-07-30T00:33:34;17.40;92.70
11423;DHT22;5768;51.476;7.210;2023-07-30T00:38:36;17.20;94.00
11423;DHT22;5768;51.476;7.210;2023-07-30T00:43:40;17.10;90.80
11423;DHT22;5768;51.476;7.210;2023-07-30T00:48:42;17.00;86.70
11423;DHT22;5768;51.476;7.210;2023-07-30T00:53:44;16.90;85.00
11423;DHT22;5768;51.476;7.210;2023-07-30T00:58:48;16.80;85.20
11423;DHT22;5768;51.476;7.210;2023-07-30T01:03:51;16.90;84.00
11423;DHT22;5768;51.476;7.210;2023-07-30T01:08:53;16.80;83.50
11423;DHT22;5768;51.476;7.210;2023-07-30T01:13:57;16.70;88.20
11423;DHT22;5768;51.476;7.210;2023-07-30T01:19:01;16.60;91.20
11423;DHT22;5768;51.476;7.210;2023-07-30T01:24:06;16.60;96.20
11423;DHT22;5768;51.476;7.210;2023-07-30T01:29:13;16.50;96.40
11423;DHT22;5768;51.476;7.210;2023-07-30T01:34:20;16.50;94.30
11423;DHT22;5768;51.476;7.210;2023-07-30T01:39:25;16.40;93.70
11423;DHT22;5768;51.476;7.210;2023-07-30T01:44:28;16.50;91.70
11423;DHT22;5768;51.476;7.210;2023-07-30T01:49:30;16.40;89.90
11423;DHT22;5768;51.476;7.210;2023-07-30T01:54:34;16.40;89.90
11423;DHT22;5768;51.476;7.210;2023-07-30T01:59:36;16.30;89.20
11423;DHT22;5768;51.476;7.210;2023-07-30T02:04:38;16.20;89.30
11423;DHT22;5768;51.476;7.210;2023-07-30T02:09:42;16.30;89.40
11423;DHT22;5768;51.476;7.210;2023-07-30T02:14:45;16.30;87.10
11423;DHT22;5768;51.476;7.210;2023-07-30T02:19:47;16.30;85.50
11423;DHT22;5768;51.476;7.210;2023-07-30T02:24:51;16.20;87.00
11423;DHT22;5768;51.476;7.210;2023-07-30T02:29:53;16.10;86.40
11423;DHT22;5768;51.476;7.210;2023-07-30T02:34:55;16.10;87.70
11423;DHT22;5768;51.476;7.210;2023-07-30T02:39:59;16.10;86.30
11423;DHT22;5768;51.476;7.210;2023-07-30T02:45:03;16.10;87.50
11423;DHT22;5768;51.476;7.210;2023-07-30T02:50:06;16.00;87.50
11423;DHT22;5768;51.476;7.210;2023-07-30T02:55:11;16.00;86.60
11423;DHT22;5768;51.476;7.210;2023-07-30T03:00:14;16.00;87.00
11423;DHT22;5768;51.476;7.210;2023-07-30T03:05:16;15.90;87.30
11423;DHT22;5768;51.476;7.210;2023-07-30T03:10:20;16.00;88.80
11423;DHT22;5768;51.476;7.210;2023-07-30T03:15:22;15.80;90.80
11423;DHT22;5768;51.476;7.210;2023-07-30T03:20:25;15.80;93.10
11423;DHT22;5768;51.476;7.210;2023-07-30T03:25:28;15.70;92.20
11423;DHT22;5768;51.476;7.210;2023-07-30T03:30:31;15.60;94.30
11423;DHT22;5768;51.476;7.210;2023-07-30T03:35:33;15.50;95.40
11423;DHT22;5768;51.476;7.210;2023-07-30T03:40:37;15.50;92.90
11423;DHT22;5768;51.476;7.210;2023-07-30T03:45:39;15.60;91.80
11423;DHT22;5768;51.476;7.210;2023-07-30T03:50:41;15.60;92.00
11423;DHT22;5768;51.476;7.210;2023-07-30T03:55:45;15.50;89.20
11423;DHT22;5768;51.476;7.210;2023-07-30T04:00:47;15.50;89.10
11423;DHT22;5768;51.476;7.210;2023-07-30T04:05:50;15.50;88.30
11423;DHT22;5768;51.476;7.210;2023-07-30T04:10:53;15.50;88.40
11423;DHT22;5768;51.476;7.210;2023-07-30T04:15:56;15.60;88.80
11423;DHT22;5768;51.476;7.210;2023-07-30T04:20:58;15.60;86.90
11423;DHT22;5768;51.476;7.210;2023-07-30T04:26:01;15.60;86.90
11423;DHT22;5768;51.476;7.210;2023-07-30T04:31:04;15.60;85.50
11423;DHT22;5768;51.476;7.210;2023-07-30T04:36:06;15.60;86.20
11423;DHT22;5768;51.476;7.210;2023-07-30T04:41:10;15.70;85.60
11423;DHT22;5768;51.476;7.210;2023-07-30T04:46:12;15.90;83.50
11423;DHT22;5768;51.476;7.210;2023-07-30T04:51:14;16.10;38.00
11423;DHT22;5768;51.476;7.210;2023-07-30T04:56:18;16.30;29.10
11423;DHT22;5768;51.476;7.210;2023-07-30T05:01:20;16.40;29.10
11423;DHT22;5768;51.476;7.210;2023-07-30T05:06:23;16.40;28.90
11423;DHT22;5768;51.476;7.210;2023-07-30T05:11:27;16.50;28.40
11423;DHT22;5768;51.476;7.210;2023-07-30T05:16:29;16.60;27.50
11423;DHT22;5768;51.476;7.210;2023-07-30T05:21:31;16.70;27.40
11423;DHT22;5768;51.476;7.210;2023-07-30T05:26:35;16.70;27.30
11423;DHT22;5768;51.476;7.210;2023-07-30T05:31:37;16.70;27.90
11423;DHT22;5768;51.476;7.210;2023-07-30T05:36:39;16.60;27.70
11423;DHT22;5768;51.476;7.210;2023-07-30T05:41:43;16.70;27.90
11423;DHT22;5768;51.476;7.210;2023-07-30T05:46:46;16.80;28.40
11423;DHT22;5768;51.476;7.210;2023-07-30T05:51:48;16.60;29.10
11423;DHT22;5768;51.476;7.210;2023-07-30T05:56:52;16.70;29.40
11423;DHT22;5768;51.476;7.210;2023-07-30T06:01:56;16.90;27.90
11423;DHT22;5768;51.476;7.210;2023-07-30T06:07:00;17.00;26.80
11423;DHT22;5768;51.476;7.210;2023-07-30T06:12:05;17.00;26.40
11423;DHT22;5768;51.476;7.210;2023-07-30T06:17:08;17.10;27.20
11423;DHT22;5768;51.476;7.210;2023-07-30T06:22:10;17.10;27.30
11423;DHT22;5768;51.476;7.210;2023-07-30T06:27:13;17.20;26.80
11423;DHT22;5768;51.476;7.210;2023-07-30T06:32:16;17.10;26.20
11423;DHT22;5768;51.476;7.210;2023-07-30T06:37:18;16.80;27.10
11423;DHT22;5768;51.476;7.210;2023-07-30T06:42:22;16.80;27.80
11423;DHT22;5768;51.476;7.210;2023-07-30T06:47:24;16.80;28.80
11423;DHT22;5768;51.476;7.210;2023-07-30T06:52:26;16.80;28.40
11423;DHT22;5768;51.476;7.210;2023-07-30T06:57:30;16.70;27.20
11423;DHT22;5768;51.476;7.210;2023-07-30T07:02:32;16.80;26.80
11423;DHT22;5768;51.476;7.210;2023-07-30T07:07:34;16.80;26.60
11423;DHT22;5768;51.476;7.210;2023-07-30T07:12:39;16.90;26.20
11423;DHT22;5768;51.476;7.210;2023-07-30T07:17:41;16.80;26.80
11423;DHT22;5768;51.476;7.210;2023-07-30T07:22:43;16.80;26.00
11423;DHT22;5768;51.476;7.210;2023-07-30T07:27:47;16.90;26.10
11423;DHT22;5768;51.476;7.210;2023-07-30T07:32:49;16.90;26.80
11423;DHT22;5768;51.476;7.210;2023-07-30T07:37:52;17.20;25.20
11423;DHT22;5768;51.476;7.210;2023-07-30T07:42:56;17.30;24.10
11423;DHT22;5768;51.476;7.210;2023-07-30T07:47:59;17.40;23.80
11423;DHT22;5768;51.476;7.210;2023-07-30T07:53:01;17.70;23.60
11423;DHT22;5768;51.476;7.210;2023-07-30T07:58:04;17.60;24.10
11423;DHT22;5768;51.476;7.210;2023-07-30T08:03:06;17.80;22.00
11423;DHT22;5768;51.476;7.210;2023-07-30T08:08:09;18.00;21.90
11423;DHT22;5768;51.476;7.210;2023-07-30T08:13:13;18.40;21.70
11423;DHT22;5768;51.476;7.210;2023-07-30T08:18:15;18.70;20.30
11423;DHT22;5768;51.476;7.210;2023-07-30T08:23:17;18.70;20.50
11423;DHT22;5768;51.476;7.210;2023-07-30T08:28:21;18.60;20.60
11423;DHT22;5768;51.476;7.210;2023-07-30T08:33:24;18.30;20.90
11423;DHT22;5768;51.476;7.210;2023-07-30T08:38:28;18.50;20.60
11423;DHT22;5768;51.476;7.210;2023-07-30T08:43:34;18.60;20.50
11423;DHT22;5768;51.476;7.210;2023-07-30T08:48:53;18.70;20.30
11423;DHT22;5768;51.476;7.210;2023-07-30T08:54:03;18.90;19.70
11423;DHT22;5768;51.476;7.210;2023-07-30T08:59:13;19.60;18.80
11423;DHT22;5768;51.476;7.210;2023-07-30T09:04:26;20.20;18.20
11423;DHT22;5768;51.476;7.210;2023-07-30T09:09:35;19.80;17.90
11423;DHT22;5768;51.476;7.210;2023-07-30T09:15:05;19.90;17.90
11423;DHT22;5768;51.476;7.210;2023-07-30T09:20:21;19.70;18.00
11423;DHT22;5768;51.476;7.210;2023-07-30T09:25:30;19.60;18.20
11423;DHT22;5768;51.476;7.210;2023-07-30T09:30:37;20.10;17.60
11423;DHT22;5768;51.476;7.210;2023-07-30T09:35:39;19.80;17.60
11423;DHT22;5768;51.476;7.210;2023-07-30T09:40:56;19.70;18.10
11423;DHT22;5768;51.476;7.210;2023-07-30T09:47:00;20.00;17.70
11423;DHT22;5768;51.476;7.210;2023-07-30T09:52:27;20.20;17.00
11423;DHT22;5768;51.476;7.210;2023-07-30T09:59:07;20.70;16.10
11423;DHT22;5768;51.476;7.210;2023-07-30T10:04:45;20.20;16.20
11423;DHT22;5768;51.476;7.210;2023-07-30T10:12:21;20.40;16.70
11423;DHT22;5768;51.476;7.210;2023-07-30T10:16:29;20.90;15.70
11423;DHT22;5768;51.476;7.210;2023-07-30T10:28:32;20.90;14.90
11423;DHT22;5768;51.476;7.210;2023-07-30T10:33:49;21.40;14.80
11423;DHT22;5768;51.476;7.210;2023-07-30T10:39:29;21.30;14.40
11423;DHT22;5768;51.476;7.210;2023-07-30T10:44:53;21.90;14.10
11423;DHT22;5768;51.476;7.210;2023-07-30T10:50:40;22.10;13.50
11423;DHT22;5768;51.476;7.210;2023-07-30T10:56:11;21.20;13.80
11423;DHT22;5768;51.476;7.210;2023-07-30T11:01:48;20.50;13.90
11423;DHT22;5768;51.476;7.210;2023-07-30T11:07:17;20.10;14.30
11423;DHT22;5768;51.476;7.210;2023-07-30T11:12:27;20.40;14.10
11423;DHT22;5768;51.476;7.210;2023-07-30T11:17:48;20.50;14.10
11423;DHT22;5768;51.476;7.210;2023-07-30T11:28:45;21.40;13.80
11423;DHT22;5768;51.476;7.210;2023-07-30T11:33:58;22.00;13.30
11423;DHT22;5768;51.476;7.210;2023-07-30T11:39:15;22.20;13.20
11423;DHT22;5768;51.476;7.210;2023-07-30T11:44:39;22.50;13.10
11423;DHT22;5768;51.476;7.210;2023-07-30T11:49:55;22.10;13.20
11423;DHT22;5768;51.476;7.210;2023-07-30T11:55:08;21.40;13.40
11423;DHT22;5768;51.476;7.210;2023-07-30T12:00:14;22.10;13.10
11423;DHT22;5768;51.476;7.210;2023-07-30T12:19:50;23.10;12.60
11423;DHT22;5768;51.476;7.210;2023-07-30T12:25:29;23.40;12.60
11423;DHT22;5768;51.476;7.210;2023-07-30T12:31:14;23.30;12.50
11423;DHT22;5768;51.476;7.210;2023-07-30T12:36:22;23.40;12.30
11423;DHT22;5768;51.476;7.210;2023-07-30T12:41:36;23.10;12.40
11423;DHT22;5768;51.476;7.210;2023-07-30T12:48:01;23.50;12.20
11423;DHT22;5768;51.476;7.210;2023-07-30T13:14:25;23.90;11.40
11423;DHT22;5768;51.476;7.210;2023-07-30T13:19:27;23.70;11.40
11423;DHT22;5768;51.476;7.210;2023-07-30T13:24:31;23.10;11.30
11423;DHT22;5768;51.476;7.210;2023-07-30T13:29:37;22.80;11.30
11423;DHT22;5768;51.476;7.210;2023-07-30T13:34:39;23.30;11.30
11423;DHT22;5768;51.476;7.210;2023-07-30T13:39:41;25.40;10.80
11423;DHT22;5768;51.476;7.210;2023-07-30T13:44:45;26.80;10.20
11423;DHT22;5768;51.476;7.210;2023-07-30T13:49:48;26.80;10.10
11423;DHT22;5768;51.476;7.210;2023-07-30T13:54:50;25.40;10.50
11423;DHT22;5768;51.476;7.210;2023-07-30T13:59:53;27.30;10.40
11423;DHT22;5768;51.476;7.210;2023-07-30T14:04:56;26.90;10.10
11423;DHT22;5768;51.476;7.210;2023-07-30T14:09:58;25.00;10.60
11423;DHT22;5768;51.476;7.210;2023-07-30T14:15:01;24.20;10.90
11423;DHT22;5768;51.476;7.210;2023-07-30T14:20:05;24.90;10.90
11423;DHT22;5768;51.476;7.210;2023-07-30T14:25:08;27.00;10.50
11423;DHT22;5768;51.476;7.210;2023-07-30T14:30:12;24.40;10.80
11423;DHT22;5768;51.476;7.210;2023-07-30T14:35:14;22.90;11.30
11423;DHT22;5768;51.476;7.210;2023-07-30T14:40:17;22.60;11.50
11423;DHT22;5768;51.476;7.210;2023-07-30T14:45:21;22.40;11.60
11423;DHT22;5768;51.476;7.210;2023-07-30T14:50:23;23.00;11.50
11423;DHT22;5768;51.476;7.210;2023-07-30T14:55:25;27.80;10.20
11423;DHT22;5768;51.476;7.210;2023-07-30T15:00:30;29.80;9.70
11423;DHT22;5768;51.476;7.210;2023-07-30T15:05:32;33.10;8.70
11423;DHT22;5768;51.476;7.210;2023-07-30T15:10:35;32.50;8.20
11423;DHT22;5768;51.476;7.210;2023-07-30T15:15:39;27.40;9.60
11423;DHT22;5768;51.476;7.210;2023-07-30T15:20:41;24.40;10.50
11423;DHT22;5768;51.476;7.210;2023-07-30T15:25:43;23.40;11.10
11423;DHT22;5768;51.476;7.210;2023-07-30T15:30:47;23.00;11.30
11423;DHT22;5768;51.476;7.210;2023-07-30T15:35:51;23.20;11.50
11423;DHT22;5768;51.476;7.210;2023-07-30T15:40:53;24.90;10.90
11423;DHT22;5768;51.476;7.210;2023-07-30T15:45:57;26.50;10.60
11423;DHT22;5768;51.476;7.210;2023-07-30T15:51:02;24.50;10.80
11423;DHT22;5768;51.476;7.210;2023-07-30T15:56:05;24.30;10.80
11423;DHT22;5768;51.476;7.210;2023-07-30T16:01:10;24.40;10.70
11423;DHT22;5768;51.476;7.210;2023-07-30T16:06:12;24.70;10.70
11423;DHT22;5768;51.476;7.210;2023-07-30T16:11:14;25.30;10.50
11423;DHT22;5768;51.476;7.210;2023-07-30T16:16:18;24.50;10.90
11423;DHT22;5768;51.476;7.210;2023-07-30T16:21:20;23.80;11.00
11423;DHT22;5768;51.476;7.210;2023-07-30T16:26:22;24.10;11.00
11423;DHT22;5768;51.476;7.210;2023-07-30T16:31:26;24.30;11.00
11423;DHT22;5768;51.476;7.210;2023-07-30T16:36:28;24.20;10.80
11423;DHT22;5768;51.476;7.210;2023-07-30T16:41:30;24.60;10.70
11423;DHT22;5768;51.476;7.210;2023-07-30T16:46:34;24.50;10.80
11423;DHT22;5768;51.476;7.210;2023-07-30T16:51:36;24.10;10.70
11423;DHT22;5768;51.476;7.210;2023-07-30T16:56:38;23.20;10.60
11423;DHT22;5768;51.476;7.210;2023-07-30T17:01:41;22.90;10.70
11423;DHT22;5768;51.476;7.210;2023-07-30T17:06:44;23.40;10.60
11423;DHT22;5768;51.476;7.210;2023-07-30T17:11:47;23.00;10.70
11423;DHT22;5768;51.476;7.210;2023-07-30T17:16:51;23.00;10.80
11423;DHT22;5768;51.476;7.210;2023-07-30T17:21:53;22.60;11.00
11423;DHT22;5768;51.476;7.210;2023-07-30T17:26:55;22.50;11.00
11423;DHT22;5768;51.476;7.210;2023-07-30T17:31:58;22.30;10.90
11423;DHT22;5768;51.476;7.210;2023-07-30T17:37:00;22.30;10.90
11423;DHT22;5768;51.476;7.210;2023-07-30T17:42:04;22.20;10.80
11423;DHT22;5768;51.476;7.210;2023-07-30T17:47:07;22.30;10.90
11423;DHT22;5768;51.476;7.210;2023-07-30T17:52:10;22.40;10.70
11423;DHT22;5768;51.476;7.210;2023-07-30T17:57:12;22.00;10.90
11423;DHT22;5768;51.476;7.210;2023-07-30T18:02:16;21.70;10.90
11423;DHT22;5768;51.476;7.210;2023-07-30T18:07:19;21.70;11.00
11423;DHT22;5768;51.476;7.210;2023-07-30T18:12:21;21.60;11.10
11423;DHT22;5768;51.476;7.210;2023-07-30T18:17:25;21.50;11.00
11423;DHT22;5768;51.476;7.210;2023-07-30T18:22:27;21.30;10.90
11423;DHT22;5768;51.476;7.210;2023-07-30T18:27:29;21.20;10.80
11423;DHT22;5768;51.476;7.210;2023-07-30T18:32:33;21.10;11.00
11423;DHT22;5768;51.476;7.210;2023-07-30T18:37:35;20.60;11.70
11423;DHT22;5768;51.476;7.210;2023-07-30T18:42:38;20.10;12.30
11423;DHT22;5768;51.476;7.210;2023-07-30T18:47:42;19.70;13.30
11423;DHT22;5768;51.476;7.210;2023-07-30T18:52:44;19.00;15.40
11423;DHT22;5768;51.476;7.210;2023-07-30T18:57:47;18.30;19.10
11423;DHT22;5768;51.476;7.210;2023-07-30T19:02:51;17.80;23.70
11423;DHT22;5768;51.476;7.210;2023-07-30T19:07:53;17.30;29.30
11423;DHT22;5768;51.476;7.210;2023-07-30T19:12:58;17.10;84.50
11423;DHT22;5768;51.476;7.210;2023-07-30T19:18:03;17.10;89.30
11423;DHT22;5768;51.476;7.210;2023-07-30T19:23:05;17.20;90.60
11423;DHT22;5768;51.476;7.210;2023-07-30T19:28:07;17.10;87.60
11423;DHT22;5768;51.476;7.210;2023-07-30T19:33:11;17.30;88.50
11423;DHT22;5768;51.476;7.210;2023-07-30T19:38:13;17.40;85.30
11423;DHT22;5768;51.476;7.210;2023-07-30T19:43:16;17.40;86.30
11423;DHT22;5768;51.476;7.210;2023-07-30T19:48:22;17.30;87.50
11423;DHT22;5768;51.476;7.210;2023-07-30T19:53:24;17.10;91.10
11423;DHT22;5768;51.476;7.210;2023-07-30T19:58:28;17.10;94.30
11423;DHT22;5768;51.476;7.210;2023-07-30T20:03:33;17.10;95.20
11423;DHT22;5768;51.476;7.210;2023-07-30T20:08:35;16.90;98.50
11423;DHT22;5768;51.476;7.210;2023-07-30T20:13:38;17.00;99.90
11423;DHT22;5768;51.476;7.210;2023-07-30T20:18:42;16.90;99.90
11423;DHT22;5768;51.476;7.210;2023-07-30T20:23:44;17.00;99.90
11423;DHT22;5768;51.476;7.210;2023-07-30T20:28:49;16.90;99.90
11423;DHT22;5768;51.476;7.210;2023-07-30T20:33:54;16.90;99.90
11423;DHT22;5768;51.476;7.210;2023-07-30T20:38:56;16.60;99.90
11423;DHT22;5768;51.476;7.210;2023-07-30T20:44:01;16.60;99.90
11423;DHT22;5768;51.476;7.210;2023-07-30T20:49:05;16.60;99.90
11423;DHT22;5768;51.476;7.210;2023-07-30T20:54:08;16.50;99.90
11423;DHT22;5768;51.476;7.210;2023-07-30T20:59:10;16.70;99.90
11423;DHT22;5768;51.476;7.210;2023-07-30T21:04:14;16.80;99.90
11423;DHT22;5768;51.476;7.210;2023-07-30T21:09:16;16.90;99.90
11423;DHT22;5768;51.476;7.210;2023-07-30T21:14:19;17.00;99.90
11423;DHT22;5768;51.476;7.210;2023-07-30T21:19:23;17.20;99.90
11423;DHT22;5768;51.476;7.210;2023-07-30T21:24:26;16.90;99.90
11423;DHT22;5768;51.476;7.210;2023-07-30T21:29:28;16.80;99.90
11423;DHT22;5768;51.476;7.210;2023-07-30T21:34:32;17.00;99.90
11423;DHT22;5768;51.476;7.210;2023-07-30T21:39:34;16.80;99.90
11423;DHT22;5768;51.476;7.210;2023-07-30T21:44:36;16.80;99.90
11423;DHT22;5768;51.476;7.210;2023-07-30T21:49:40;16.60;99.90
11423;DHT22;5768;51.476;7.210;2023-07-30T21:54:42;16.60;99.90
11423;DHT22;5768;51.476;7.210;2023-07-30T21:59:45;16.50;99.90
11423;DHT22;5768;51.476;7.210;2023-07-30T22:04:49;16.40;99.90
11423;DHT22;5768;51.476;7.210;2023-07-30T22:09:52;16.40;99.90
11423;DHT22;5768;51.476;7.210;2023-07-30T22:14:54;16.30;99.90
11423;DHT22;5768;51.476;7.210;2023-07-30T22:19:58;16.40;99.90
11423;DHT22;5768;51.476;7.210;2023-07-30T22:25:00;16.40;99.90
11423;DHT22;5768;51.476;7.210;2023-07-30T22:30:03;16.30;99.90
11423;DHT22;5768;51.476;7.210;2023-07-30T22:35:07;16.30;99.90
11423;DHT22;5768;51.476;7.210;2023-07-30T22:40:10;16.30;99.90
11423;DHT22;5768;51.476;7.210;2023-07-30T22:45:13;16.30;99.90
11423;DHT22;5768;51.476;7.210;2023-07-30T22:50:17;16.30;99.90
11423;DHT22;5768;51.476;7.210;2023-07-30T22:55:21;16.40;99.90
11423;DHT22;5768;51.476;7.210;2023-07-30T23:00:24;16.30;99.90
11423;DHT22;5768;51.476;7.210;2023-07-30T23:05:27;16.30;99.90
11423;DHT22;5768;51.476;7.210;2023-07-30T23:10:30;16.30;99.90
11423;DHT22;5768;51.476;7.210;2023-07-30T23:15:33;16.40;99.90
11423;DHT22;5768;51.476;7.210;2023-07-30T23:20:37;16.30;99.90
11423;DHT22;5768;51.476;7.210;2023-07-30T23:25:39;16.30;99.90
11423;DHT22;5768;51.476;7.210;2023-07-30T23:30:41;16.20;99.90
11423;DHT22;5768;51.476;7.210;2023-07-30T23:35:45;16.20;99.90
11423;DHT22;5768;51.476;7.210;2023-07-30T23:40:47;16.10;99.90
11423;DHT22;5768;51.476;7.210;2023-07-30T23:45:49;16.00;99.90
11423;DHT22;5768;51.476;7.210;2023-07-30T23:50:53;16.10;99.90
11423;DHT22;5768;51.476;7.210;2023-07-30T23:55:55;16.20;99.90
